Time;durP1;ratioP1;P1;durP2;ratioP2;P2;SDS_P1;SDS_P2;PMS_P1;PMS_P2;Temp;Humidity;BMP_temperature;BMP_pressure;BME280_temperature;BME280_humidity;BME280_pressure;Samples;Min_cycle;Max_cycle;Signal;HPM_P1;HPM_P2
2024/03/06 00:00:04;;;;;;;18.40;11.77;;;;;;;5.07;77.20;93154.03;521517;28;773;-70
2024/03/06 00:00:20;;;;;;;16.05;10.70;;;;;;;5.01;77.46;93156.13;521512;28;841;-70
2024/03/06 00:00:35;;;;;;;12.85;9.25;;;;;;;4.96;77.42;93159.69;521697;28;864;-70
2024/03/06 00:00:51;;;;;;;13.07;8.53;;;;;;;4.86;77.17;93158.59;521506;28;825;-70
2024/03/06 00:01:06;;;;;;;14.48;8.95;;;;;;;4.83;77.23;93152.16;521406;28;893;-70
2024/03/06 00:01:22;;;;;;;14.37;8.67;;;;;;;4.82;77.33;93158.16;521551;28;908;-70
2024/03/06 00:01:37;;;;;;;13.18;7.72;;;;;;;4.82;77.86;93150.69;521474;28;845;-70
2024/03/06 00:01:53;;;;;;;11.77;7.10;;;;;;;4.85;77.90;93154.38;521538;28;864;-70
2024/03/06 00:02:09;;;;;;;10.57;6.80;;;;;;;4.81;77.68;93159.41;521461;28;828;-70
2024/03/06 00:02:24;;;;;;;9.73;6.63;;;;;;;4.81;77.80;93159.41;521556;28;884;-70
2024/03/06 00:02:40;;;;;;;9.32;6.47;;;;;;;4.81;77.87;93160.13;521415;28;794;-70
2024/03/06 00:02:55;;;;;;;9.00;6.23;;;;;;;4.81;77.45;93157.41;521560;28;871;-70
2024/03/06 00:03:10;;;;;;;11.05;6.30;;;;;;;4.78;77.47;93155.72;521417;28;908;-70
2024/03/06 00:03:26;;;;;;;11.37;6.27;;;;;;;4.79;77.77;93159.91;521541;28;883;-70
2024/03/06 00:03:41;;;;;;;8.85;5.95;;;;;;;4.80;77.29;93163.41;521471;28;757;-70
2024/03/06 00:03:57;;;;;;;8.53;6.43;;;;;;;4.79;77.49;93167.38;521442;28;874;-70
2024/03/06 00:04:13;;;;;;;8.88;6.63;;;;;;;4.79;77.56;93159.16;521501;28;836;-71
2024/03/06 00:04:28;;;;;;;9.27;6.30;;;;;;;4.78;77.55;93161.19;521508;28;766;-70
2024/03/06 00:04:43;;;;;;;11.93;6.60;;;;;;;4.77;77.17;93159.69;521538;28;1038;-70
2024/03/06 00:04:59;;;;;;;11.33;6.70;;;;;;;4.78;77.47;93165.91;521463;28;943;-70
2024/03/06 00:05:14;;;;;;;9.88;6.97;;;;;;;4.77;77.49;93164.41;521491;28;822;-70
2024/03/06 00:05:30;;;;;;;10.47;6.87;;;;;;;4.77;77.50;93156.22;521531;28;983;-70
2024/03/06 00:05:45;;;;;;;11.10;7.00;;;;;;;4.78;77.56;93165.91;521549;28;928;-70
2024/03/06 00:06:01;;;;;;;11.13;7.40;;;;;;;4.78;77.72;93163.91;521471;28;773;-70
2024/03/06 00:06:16;;;;;;;10.50;7.30;;;;;;;4.80;77.53;93155.94;521515;28;782;-70
2024/03/06 00:06:32;;;;;;;10.73;7.53;;;;;;;4.81;77.21;93162.88;521547;28;836;-70
2024/03/06 00:06:47;;;;;;;11.50;7.77;;;;;;;4.82;77.35;93167.09;521377;28;1118;-70
2024/03/06 00:07:02;;;;;;;12.10;8.30;;;;;;;4.83;77.17;93159.63;521515;28;817;-70
2024/03/06 00:07:18;;;;;;;12.57;8.60;;;;;;;4.82;77.22;93163.63;521582;28;790;-70
2024/03/06 00:07:33;;;;;;;15.25;9.43;;;;;;;4.82;77.26;93160.88;521520;28;904;-70
2024/03/06 00:07:49;;;;;;;17.60;10.87;;;;;;;4.82;76.87;93161.63;521510;28;1040;-70
2024/03/06 00:08:05;;;;;;;15.95;10.73;;;;;;;4.83;77.18;93162.38;521438;28;935;-70
2024/03/06 00:08:20;;;;;;;16.80;10.80;;;;;;;4.80;77.15;93152.44;521370;28;785;-70
2024/03/06 00:08:37;;;;;;;18.08;11.43;;;;;;;4.83;76.98;93162.38;521523;28;1082;-70
2024/03/06 00:08:52;;;;;;;17.40;10.67;;;;;;;4.83;76.73;93162.38;521434;28;1120;-70
2024/03/06 00:09:08;;;;;;;16.77;10.93;;;;;;;4.83;76.67;93160.34;521594;28;753;-70
2024/03/06 00:09:24;;;;;;;15.18;11.45;;;;;;;4.79;76.74;93154.44;521515;28;785;-70
2024/03/06 00:09:40;;;;;;;15.13;11.52;;;;;;;4.74;76.57;93146.34;521375;28;1088;-70
2024/03/06 00:09:55;;;;;;;16.55;11.73;;;;;;;4.84;76.79;93158.38;521559;28;825;-70
2024/03/06 00:10:11;;;;;;;17.13;11.77;;;;;;;4.84;77.26;93167.31;521421;28;971;-70
2024/03/06 00:10:26;;;;;;;17.65;12.45;;;;;;;4.85;77.03;93160.56;521556;28;845;-70
2024/03/06 00:10:42;;;;;;;18.33;13.20;;;;;;;4.85;77.17;93155.09;521494;28;1134;-70
2024/03/06 00:10:57;;;;;;;20.00;13.63;;;;;;;4.85;76.84;93159.84;521493;28;852;-70
2024/03/06 00:11:13;;;;;;;19.90;14.23;;;;;;;4.85;77.21;93163.31;521560;28;797;-70
2024/03/06 00:11:28;;;;;;;18.02;13.82;;;;;;;4.85;77.85;93157.84;521483;28;849;-70
2024/03/06 00:11:44;;;;;;;17.07;13.00;;;;;;;4.86;77.77;93159.31;521408;28;1914;-70
2024/03/06 00:12:00;;;;;;;17.38;12.93;;;;;;;4.86;77.99;93156.59;521626;28;781;-70
2024/03/06 00:12:15;;;;;;;17.37;12.00;;;;;;;4.86;77.86;93156.59;521598;28;840;-70
2024/03/06 00:12:30;;;;;;;18.50;12.18;;;;;;;4.82;78.14;93155.41;521718;28;876;-70
2024/03/06 00:12:46;;;;;;;17.13;11.93;;;;;;;4.79;78.40;93159.16;521555;27;981;-70
2024/03/06 00:13:02;;;;;;;13.48;9.32;;;;;;;4.77;78.24;93164.41;521567;27;852;-71
2024/03/06 00:13:17;;;;;;;11.20;8.13;;;;;;;4.76;78.17;93160.97;521418;28;865;-70
2024/03/06 00:13:32;;;;;;;11.45;8.35;;;;;;;4.76;78.54;93154.75;521470;28;849;-70
2024/03/06 00:13:49;;;;;;;13.48;8.70;;;;;;;4.77;78.84;93162.44;521472;28;1035;-70
2024/03/06 00:14:05;;;;;;;12.95;8.57;;;;;;;4.77;78.86;93153.47;521771;28;895;-70
2024/03/06 00:14:24;;;;;;;11.93;8.57;;;;;;;4.78;78.59;93165.91;521617;28;947;-70
2024/03/06 00:14:39;;;;;;;12.48;9.50;;;;;;;4.80;78.90;93157.94;521699;28;809;-70
2024/03/06 00:14:54;;;;;;;14.47;11.33;;;;;;;4.79;79.12;93159.91;521652;28;897;-70
2024/03/06 00:15:10;;;;;;;16.10;11.97;;;;;;;4.80;79.05;93153.19;521550;28;734;-70
2024/03/06 00:15:25;;;;;;;15.23;11.25;;;;;;;4.80;78.82;93157.94;521811;28;853;-70
2024/03/06 00:15:41;;;;;;;15.27;11.20;;;;;;;4.81;79.14;93160.13;521708;28;1086;-70
2024/03/06 00:15:56;;;;;;;15.10;10.95;;;;;;;4.79;78.83;93156.44;521736;28;865;-70
2024/03/06 00:16:12;;;;;;;14.73;10.83;;;;;;;4.70;78.36;93159.56;521722;28;1059;-70
2024/03/06 00:16:27;;;;;;;14.77;10.33;;;;;;;4.70;78.60;93156.84;520984;28;1084;-70
2024/03/06 00:16:43;;;;;;;15.00;9.85;;;;;;;4.70;78.52;93157.53;519606;28;992;-70
2024/03/06 00:16:58;;;;;;;14.97;10.47;;;;;;;4.71;78.30;93158.28;517416;28;914;-70
2024/03/06 00:17:13;;;;;;;15.65;11.45;;;;;;;4.69;78.03;93152.59;517384;28;892;-70
2024/03/06 00:17:29;;;;;;;15.77;11.77;;;;;;;4.70;77.85;93156.84;517427;28;763;-70
2024/03/06 00:17:44;;;;;;;13.63;10.73;;;;;;;4.70;78.05;93159.56;517375;28;897;-70
2024/03/06 00:18:00;;;;;;;14.10;10.27;;;;;;;4.71;77.83;93163.75;517375;28;841;-70
2024/03/06 00:18:16;;;;;;;14.50;10.60;;;;;;;4.69;77.84;93158.06;517406;28;909;-70
2024/03/06 00:18:31;;;;;;;13.45;10.32;;;;;;;4.71;77.76;93163.75;517361;28;924;-70
2024/03/06 00:18:47;;;;;;;13.60;10.13;;;;;;;4.71;78.07;93163.75;517790;28;943;-70
2024/03/06 00:19:02;;;;;;;13.43;9.88;;;;;;;4.69;78.03;93155.34;519637;28;811;-71
2024/03/06 00:19:18;;;;;;;14.00;9.80;;;;;;;4.71;77.83;93166.50;519584;28;880;-70
2024/03/06 00:19:34;;;;;;;15.13;10.73;;;;;;;4.53;77.34;93148.84;519694;28;901;-70
2024/03/06 00:19:49;;;;;;;13.23;10.10;;;;;;;4.45;77.40;93147.94;519661;28;786;-70
2024/03/06 00:20:06;;;;;;;11.17;9.00;;;;;;;4.41;77.94;93161.16;519664;28;782;-70
2024/03/06 00:20:21;;;;;;;12.02;9.00;;;;;;;4.39;77.62;93160.94;519572;28;1015;-70
2024/03/06 00:20:37;;;;;;;13.20;9.07;;;;;;;4.39;77.84;93155.47;519567;28;858;-70
2024/03/06 00:20:53;;;;;;;14.43;9.05;;;;;;;4.41;78.15;93161.91;519521;28;846;-70
2024/03/06 00:21:09;;;;;;;15.57;10.85;;;;;;;4.41;78.82;93163.91;519623;28;814;-70
2024/03/06 00:21:25;;;;;;;13.88;10.57;;;;;;;4.40;78.97;93160.44;519684;28;940;-70
2024/03/06 00:21:40;;;;;;;12.63;9.50;;;;;;;4.41;78.77;93161.91;519655;28;786;-70
2024/03/06 00:21:56;;;;;;;12.33;9.50;;;;;;;4.43;79.61;93153.94;519592;28;845;-70
2024/03/06 00:22:11;;;;;;;12.70;9.07;;;;;;;4.45;79.02;93158.88;519553;28;857;-70
2024/03/06 00:22:26;;;;;;;13.27;8.75;;;;;;;4.45;79.34;93156.16;519657;28;782;-70
2024/03/06 00:22:42;;;;;;;12.17;8.63;;;;;;;4.46;79.27;93169.28;519698;28;889;-70
2024/03/06 00:22:59;;;;;;;11.18;8.70;;;;;;;4.48;79.29;93160.59;519745;28;855;-70
2024/03/06 00:23:14;;;;;;;10.85;8.52;;;;;;;4.50;79.27;93164.25;519552;28;896;-70
2024/03/06 00:23:30;;;;;;;11.83;8.77;;;;;;;4.50;79.52;93158.09;519400;28;782;-70
2024/03/06 00:23:46;;;;;;;12.43;8.93;;;;;;;4.51;79.07;93162.28;519624;28;885;-70
2024/03/06 00:24:03;;;;;;;12.38;9.10;;;;;;;4.52;79.38;93166.50;519562;28;818;-70
2024/03/06 00:24:19;;;;;;;13.70;9.20;;;;;;;4.52;79.50;93159.03;519724;28;877;-70
2024/03/06 00:24:34;;;;;;;13.32;8.57;;;;;;;4.52;79.17;93161.78;519681;28;810;-70
2024/03/06 00:24:51;;;;;;;13.43;8.87;;;;;;;4.52;78.83;93161.78;519577;28;1093;-70
2024/03/06 00:25:08;;;;;;;12.30;8.57;;;;;;;4.53;79.22;93167.97;519598;28;893;-70
2024/03/06 00:25:23;;;;;;;10.65;7.95;;;;;;;4.53;78.68;93163.25;519634;28;806;-70
2024/03/06 00:25:39;;;;;;;10.60;8.23;;;;;;;4.53;78.59;93159.75;519628;28;877;-70
2024/03/06 00:25:54;;;;;;;9.80;8.23;;;;;;;4.51;78.63;93165.00;519635;28;769;-70
2024/03/06 00:26:10;;;;;;;10.90;8.20;;;;;;;4.50;78.45;93163.56;519579;28;766;-70
2024/03/06 00:26:25;;;;;;;11.43;8.18;;;;;;;4.50;78.33;93166.28;519667;28;786;-70
2024/03/06 00:26:41;;;;;;;10.10;8.00;;;;;;;4.49;78.51;93162.81;519641;28;805;-70
2024/03/06 00:26:57;;;;;;;9.98;7.97;;;;;;;4.50;78.51;93166.28;519609;28;904;-70
2024/03/06 00:27:13;;;;;;;11.63;8.18;;;;;;;4.50;78.58;93169.72;519611;28;802;-70
2024/03/06 00:27:29;;;;;;;12.10;8.00;;;;;;;4.31;78.07;93136.19;519501;28;967;-70
2024/03/06 00:27:44;;;;;;;10.38;7.70;;;;;;;4.49;78.35;93164.78;519695;28;786;-70
2024/03/06 00:27:59;;;;;;;9.70;7.20;;;;;;;4.47;78.28;93165.31;519585;28;782;-70
2024/03/06 00:28:15;;;;;;;10.03;7.17;;;;;;;4.46;78.01;93163.09;519583;28;862;-70
2024/03/06 00:28:30;;;;;;;10.80;7.63;;;;;;;4.45;78.09;93167.09;519561;28;786;-70
2024/03/06 00:28:46;;;;;;;9.87;7.50;;;;;;;4.43;77.95;93167.59;519670;28;860;-70
2024/03/06 00:29:01;;;;;;;9.60;7.43;;;;;;;4.41;77.39;93170.13;517265;28;2236;-70
2024/03/06 00:29:17;;;;;;;10.93;7.63;;;;;;;4.37;77.74;93158.75;517396;28;755;-70
2024/03/06 00:29:32;;;;;;;10.88;7.55;;;;;;;4.21;77.24;93137.81;517456;28;766;-70
2024/03/06 00:29:48;;;;;;;10.03;7.47;;;;;;;4.39;77.70;93164.44;517441;28;778;-70
2024/03/06 00:30:03;;;;;;;9.48;7.45;;;;;;;4.35;76.94;93169.44;517339;28;832;-70
2024/03/06 00:30:19;;;;;;;8.80;6.87;;;;;;;4.35;77.59;93169.44;517312;28;827;-70
2024/03/06 00:30:35;;;;;;;7.97;6.53;;;;;;;4.35;77.37;93163.25;517429;28;861;-70
2024/03/06 00:30:50;;;;;;;8.37;6.53;;;;;;;4.35;77.14;93169.44;517754;28;743;-70
2024/03/06 00:31:06;;;;;;;9.57;6.90;;;;;;;4.33;77.54;93171.94;519614;28;873;-70
2024/03/06 00:31:21;;;;;;;10.55;7.78;;;;;;;4.26;77.28;93175.28;519625;28;892;-70
2024/03/06 00:31:42;;;;;;;10.50;7.83;;;;;;;4.22;77.11;93174.78;519371;28;1919;-70
2024/03/06 00:31:58;;;;;;;11.25;7.82;;;;;;;4.20;77.25;93166.38;519598;28;888;-70
2024/03/06 00:32:14;;;;;;;11.20;7.95;;;;;;;4.20;77.41;93171.84;519487;28;1118;-70
2024/03/06 00:32:29;;;;;;;11.05;7.95;;;;;;;4.21;77.41;93167.88;519596;28;778;-70
2024/03/06 00:32:45;;;;;;;11.77;8.03;;;;;;;4.23;77.63;93165.34;519379;28;837;-70
2024/03/06 00:33:00;;;;;;;11.60;7.95;;;;;;;4.26;77.70;93169.81;519147;28;945;-70
2024/03/06 00:33:16;;;;;;;9.93;6.93;;;;;;;4.27;77.86;93174.00;519575;28;872;-70
2024/03/06 00:33:31;;;;;;;9.32;6.93;;;;;;;4.28;78.03;93170.03;519551;28;869;-70
2024/03/06 00:33:47;;;;;;;10.40;7.53;;;;;;;4.30;77.24;93167.50;519587;28;834;-70
2024/03/06 00:34:02;;;;;;;9.98;7.60;;;;;;;4.31;77.55;93171.72;519660;28;817;-70
2024/03/06 00:34:18;;;;;;;10.07;7.90;;;;;;;4.34;77.03;93167.22;519686;28;757;-70
2024/03/06 00:34:34;;;;;;;11.93;8.77;;;;;;;4.34;77.36;93173.44;519631;28;834;-70
2024/03/06 00:34:49;;;;;;;11.43;8.90;;;;;;;4.35;77.28;93161.22;519626;28;1098;-70
2024/03/06 00:35:05;;;;;;;10.67;8.87;;;;;;;4.37;76.99;93164.22;519528;28;861;-70
2024/03/06 00:35:21;;;;;;;11.73;9.27;;;;;;;4.37;76.46;93158.75;519606;28;856;-70
2024/03/06 00:35:37;;;;;;;11.50;9.25;;;;;;;4.38;77.05;93168.41;519583;28;909;-70
2024/03/06 00:35:52;;;;;;;12.20;9.63;;;;;;;4.39;76.54;93163.69;519586;28;873;-70
2024/03/06 00:36:08;;;;;;;12.23;9.37;;;;;;;4.39;76.49;93161.69;519637;28;813;-70
2024/03/06 00:36:23;;;;;;;12.60;9.13;;;;;;;4.22;76.67;93139.28;519582;28;778;-70
2024/03/06 00:36:46;;;;;;;12.77;9.10;;;;;;;4.42;76.63;93162.63;519615;28;790;-70
2024/03/06 00:37:01;;;;;;;14.73;9.60;;;;;;;4.41;76.61;93161.16;519554;28;877;-70
2024/03/06 00:37:17;;;;;;;13.30;8.90;;;;;;;4.38;76.28;93157.47;519571;28;849;-70
2024/03/06 00:37:33;;;;;;;10.35;8.00;;;;;;;4.40;76.39;93159.69;519494;28;846;-70
2024/03/06 00:37:48;;;;;;;10.55;7.93;;;;;;;4.40;77.07;93163.16;519592;28;846;-70
2024/03/06 00:38:04;;;;;;;10.73;8.00;;;;;;;4.35;76.66;93155.03;519552;28;845;-70
2024/03/06 00:38:19;;;;;;;10.95;8.20;;;;;;;4.30;77.54;93161.31;519652;28;920;-70
2024/03/06 00:38:35;;;;;;;11.00;8.03;;;;;;;4.26;77.52;93167.06;519502;28;784;-70
2024/03/06 00:38:50;;;;;;;11.23;8.02;;;;;;;4.22;77.56;93155.66;519571;28;834;-70
2024/03/06 00:39:05;;;;;;;11.10;7.97;;;;;;;4.20;77.63;93157.47;519661;28;746;-70
2024/03/06 00:39:21;;;;;;;9.77;7.50;;;;;;;4.17;77.78;93156.50;519603;28;798;-70
2024/03/06 00:39:36;;;;;;;9.35;6.97;;;;;;;4.10;77.53;93161.78;519652;28;932;-70
2024/03/06 00:39:52;;;;;;;10.27;7.10;;;;;;;4.03;77.53;93154.91;519599;28;786;-70
2024/03/06 00:40:08;;;;;;;11.07;7.55;;;;;;;3.95;77.84;93154.00;519616;28;868;-70
2024/03/06 00:40:23;;;;;;;11.82;7.97;;;;;;;3.88;77.97;93154.56;519638;28;864;-70
2024/03/06 00:40:39;;;;;;;11.83;7.60;;;;;;;3.85;78.25;93155.59;519646;28;1096;-70
2024/03/06 00:40:57;;;;;;;10.07;7.05;;;;;;;3.84;78.12;93159.56;519532;28;889;-70
2024/03/06 00:41:12;;;;;;;9.73;6.63;;;;;;;3.79;78.59;93158.38;519438;28;1017;-70
2024/03/06 00:41:28;;;;;;;9.07;6.30;;;;;;;3.77;78.43;93157.41;519436;28;798;-70
2024/03/06 00:41:43;;;;;;;9.05;6.20;;;;;;;3.73;78.23;93160.44;519665;28;849;-70
2024/03/06 00:41:59;;;;;;;8.07;5.83;;;;;;;3.72;78.58;93158.22;519693;28;861;-70
2024/03/06 00:42:14;;;;;;;7.63;5.18;;;;;;;3.70;78.81;93158.00;519665;28;832;-70
2024/03/06 00:42:30;;;;;;;8.50;5.50;;;;;;;3.67;78.15;93151.56;519631;28;805;-70
2024/03/06 00:42:45;;;;;;;8.32;5.50;;;;;;;3.66;78.44;93160.28;519631;28;865;-70
2024/03/06 00:43:00;;;;;;;7.07;5.10;;;;;;;3.59;78.08;93160.81;519486;28;770;-70
2024/03/06 00:43:16;;;;;;;6.60;5.13;;;;;;;3.55;77.92;93149.44;519628;28;828;-70
2024/03/06 00:43:31;;;;;;;7.63;5.60;;;;;;;3.55;77.95;93154.91;519634;28;813;-70
2024/03/06 00:43:47;;;;;;;8.43;5.60;;;;;;;3.55;78.73;93152.19;519583;28;802;-70
2024/03/06 00:44:03;;;;;;;8.40;5.78;;;;;;;3.51;78.46;93151.72;519505;28;822;-70
2024/03/06 00:44:18;;;;;;;7.75;5.90;;;;;;;3.51;78.82;93154.47;519509;28;945;-70
2024/03/06 00:44:34;;;;;;;7.40;5.40;;;;;;;3.49;78.08;93152.22;521563;28;1048;-70
2024/03/06 00:44:49;;;;;;;7.82;5.38;;;;;;;3.47;78.67;93159.44;521612;28;850;-70
2024/03/06 00:45:05;;;;;;;9.10;5.83;;;;;;;3.47;78.57;93156.69;519227;28;1374;-70
2024/03/06 00:45:21;;;;;;;8.05;6.18;;;;;;;3.44;78.88;93157.75;519393;28;818;-70
2024/03/06 00:45:37;;;;;;;8.30;6.27;;;;;;;3.40;79.38;93155.28;519394;28;818;-70
2024/03/06 00:45:52;;;;;;;9.13;6.35;;;;;;;3.39;79.63;93156.53;519520;28;853;-70
2024/03/06 00:46:08;;;;;;;9.53;6.67;;;;;;;3.39;79.73;93153.06;519288;28;834;-70
2024/03/06 00:46:23;;;;;;;9.70;6.85;;;;;;;3.41;79.16;93156.75;519412;28;936;-70
2024/03/06 00:46:38;;;;;;;9.53;7.17;;;;;;;3.45;79.96;93153.75;519399;28;892;-70
2024/03/06 00:46:54;;;;;;;9.98;7.30;;;;;;;3.49;79.67;93151.47;519795;28;873;-70
2024/03/06 00:47:09;;;;;;;10.03;6.87;;;;;;;3.48;79.31;93158.94;521453;28;987;-70
2024/03/06 00:47:25;;;;;;;9.07;6.90;;;;;;;3.45;80.56;93151.75;520594;28;1261;-70
2024/03/06 00:47:41;;;;;;;9.43;7.00;;;;;;;3.43;80.57;93150.78;519535;28;1078;-70
2024/03/06 00:47:57;;;;;;;9.18;6.60;;;;;;;3.45;80.31;93151.00;519609;28;909;-70
2024/03/06 00:48:12;;;;;;;8.00;6.20;;;;;;;3.46;80.42;93152.50;519459;28;830;-70
2024/03/06 00:48:28;;;;;;;11.50;6.33;;;;;;;3.48;80.56;93158.19;519563;28;795;-70
2024/03/06 00:48:43;;;;;;;12.10;6.30;;;;;;;3.50;80.29;93156.44;519592;28;897;-70
2024/03/06 00:48:58;;;;;;;9.23;5.93;;;;;;;3.53;80.15;93152.66;519579;28;786;-70
2024/03/06 00:49:14;;;;;;;8.13;5.72;;;;;;;3.56;80.26;93157.13;519428;28;1455;-70
2024/03/06 00:49:29;;;;;;;7.57;5.77;;;;;;;3.54;79.81;93145.22;519548;28;886;-70
2024/03/06 00:49:45;;;;;;;8.77;6.00;;;;;;;3.60;80.09;93159.56;519545;28;870;-70
2024/03/06 00:50:01;;;;;;;8.23;5.70;;;;;;;3.62;79.53;93159.78;519428;28;1025;-70
2024/03/06 00:50:17;;;;;;;7.35;5.43;;;;;;;3.64;79.41;93163.50;519551;28;798;-70
2024/03/06 00:50:33;;;;;;;8.13;5.22;;;;;;;3.66;79.21;93160.28;519481;28;1631;-70
2024/03/06 00:50:49;;;;;;;8.57;5.78;;;;;;;3.65;79.73;93159.53;519566;28;1109;-70
2024/03/06 00:51:07;;;;;;;8.30;5.93;;;;;;;3.65;79.19;93158.78;519399;28;911;-70
2024/03/06 00:51:23;;;;;;;7.35;5.50;;;;;;;3.65;78.85;93156.03;519539;28;910;-70
2024/03/06 00:51:38;;;;;;;7.13;5.68;;;;;;;3.66;78.83;93160.28;519456;28;1977;-70
2024/03/06 00:51:54;;;;;;;6.80;5.25;;;;;;;3.65;79.09;93154.06;519535;28;833;-70
2024/03/06 00:52:09;;;;;;;7.73;5.33;;;;;;;3.61;78.85;93159.06;519593;28;778;-70
2024/03/06 00:52:25;;;;;;;8.57;6.07;;;;;;;3.61;79.08;93161.06;519573;28;762;-70
2024/03/06 00:52:41;;;;;;;8.80;6.25;;;;;;;3.63;79.15;93158.56;519618;28;838;-71
2024/03/06 00:52:56;;;;;;;8.27;5.65;;;;;;;3.65;79.08;93162.25;519566;28;801;-70
2024/03/06 00:53:11;;;;;;;7.93;5.70;;;;;;;3.67;78.97;93165.22;519485;28;786;-70
2024/03/06 00:53:27;;;;;;;7.35;5.90;;;;;;;3.69;78.74;93161.97;519583;28;1081;-70
2024/03/06 00:53:42;;;;;;;8.43;5.93;;;;;;;3.71;78.84;93159.47;519470;28;778;-70
2024/03/06 00:53:58;;;;;;;9.70;6.07;;;;;;;3.72;78.51;93161.69;519445;28;822;-70
2024/03/06 00:54:13;;;;;;;7.47;5.63;;;;;;;3.74;78.40;93161.19;519587;28;804;-70
2024/03/06 00:54:29;;;;;;;6.97;5.60;;;;;;;3.77;78.95;93162.88;519604;28;888;-70
2024/03/06 00:54:44;;;;;;;7.17;5.90;;;;;;;3.79;78.87;93165.81;519641;28;750;-70
2024/03/06 00:55:00;;;;;;;8.17;6.60;;;;;;;3.80;78.22;93164.59;519553;28;871;-70
2024/03/06 00:55:16;;;;;;;9.15;6.63;;;;;;;3.67;78.29;93143.38;519502;28;813;-70
2024/03/06 00:55:31;;;;;;;8.40;5.78;;;;;;;3.81;78.14;93163.34;519555;28;896;-70
2024/03/06 00:55:46;;;;;;;7.20;5.50;;;;;;;3.83;77.59;93164.28;519558;28;920;-70
2024/03/06 00:56:03;;;;;;;7.15;5.57;;;;;;;3.83;77.68;93166.31;519596;28;784;-70
2024/03/06 00:56:18;;;;;;;8.48;5.70;;;;;;;3.82;77.24;93165.56;519602;28;866;-70
2024/03/06 00:56:37;;;;;;;8.17;5.87;;;;;;;3.82;77.51;93165.56;519529;28;912;-70
2024/03/06 00:56:53;;;;;;;6.40;5.32;;;;;;;3.80;77.03;93164.59;519540;28;826;-70
2024/03/06 00:57:09;;;;;;;6.27;5.07;;;;;;;3.80;77.41;93170.03;519512;28;802;-70
2024/03/06 00:57:24;;;;;;;6.97;5.53;;;;;;;3.80;76.87;93164.59;519615;28;904;-70
2024/03/06 00:57:40;;;;;;;7.18;5.47;;;;;;;3.81;76.99;93168.81;519608;28;802;-70
2024/03/06 00:57:56;;;;;;;7.80;5.70;;;;;;;3.83;77.23;93169.03;519471;28;739;-70
2024/03/06 00:58:12;;;;;;;8.00;6.05;;;;;;;3.83;76.65;93169.75;519469;28;873;-70
2024/03/06 00:58:27;;;;;;;7.43;6.10;;;;;;;3.82;77.22;93165.56;519541;28;861;-70
2024/03/06 00:58:43;;;;;;;8.80;6.27;;;;;;;3.81;77.10;93166.78;519561;28;868;-70
2024/03/06 00:58:58;;;;;;;9.23;6.13;;;;;;;3.82;77.02;93168.28;519523;28;794;-70
2024/03/06 00:59:14;;;;;;;6.97;5.70;;;;;;;3.83;76.57;93169.75;519538;28;865;-70
2024/03/06 00:59:29;;;;;;;7.13;6.03;;;;;;;3.84;76.70;93173.22;519501;28;853;-70
2024/03/06 00:59:45;;;;;;;8.32;6.75;;;;;;;3.83;76.84;93166.31;519584;28;825;-70
2024/03/06 01:00:00;;;;;;;8.67;6.70;;;;;;;3.80;76.43;93168.06;519567;28;865;-70
2024/03/06 01:00:16;;;;;;;9.00;6.80;;;;;;;3.76;76.88;93164.13;519585;28;865;-70
2024/03/06 01:00:31;;;;;;;9.02;7.30;;;;;;;3.72;77.05;93155.50;519502;28;829;-70
2024/03/06 01:00:47;;;;;;;10.88;7.97;;;;;;;3.68;76.43;93163.22;519497;28;805;-70
2024/03/06 01:01:02;;;;;;;13.53;8.77;;;;;;;3.60;77.07;93162.28;519522;28;979;-70
2024/03/06 01:01:18;;;;;;;12.85;9.00;;;;;;;3.52;77.08;93158.66;519615;28;853;-70
2024/03/06 01:01:34;;;;;;;11.75;8.82;;;;;;;3.52;77.52;93164.84;519503;28;817;-70
2024/03/06 01:01:49;;;;;;;12.40;9.10;;;;;;;3.54;77.55;93164.34;519497;28;834;-70
2024/03/06 01:02:06;;;;;;;12.07;8.82;;;;;;;3.55;77.77;93160.38;519498;28;790;-70
2024/03/06 01:02:21;;;;;;;12.25;8.57;;;;;;;3.56;77.62;93168.03;519496;28;1108;-70
2024/03/06 01:02:37;;;;;;;11.77;8.47;;;;;;;3.57;77.33;93169.50;519621;28;798;-70
2024/03/06 01:02:53;;;;;;;11.48;8.20;;;;;;;3.58;77.52;93164.78;519525;28;837;-70
2024/03/06 01:03:08;;;;;;;11.87;7.70;;;;;;;3.58;77.67;93165.53;519493;28;869;-70
2024/03/06 01:03:24;;;;;;;11.75;7.57;;;;;;;3.54;77.36;93161.59;519658;28;770;-70
2024/03/06 01:03:40;;;;;;;12.50;8.18;;;;;;;3.45;77.90;93162.69;519428;28;1009;-70
2024/03/06 01:03:55;;;;;;;12.17;8.90;;;;;;;3.38;78.15;93163.22;519589;28;826;-70
2024/03/06 01:04:11;;;;;;;12.25;9.50;;;;;;;3.31;78.09;93168.50;519563;28;794;-70
2024/03/06 01:04:26;;;;;;;12.00;9.13;;;;;;;3.23;78.61;93168.31;519640;28;833;-70
2024/03/06 01:04:41;;;;;;;13.00;8.47;;;;;;;3.17;78.75;93167.63;519528;28;845;-70
2024/03/06 01:04:57;;;;;;;12.82;8.18;;;;;;;3.15;78.99;93166.66;519562;28;829;-70
2024/03/06 01:05:12;;;;;;;12.17;8.60;;;;;;;3.13;79.14;93164.44;519507;28;849;-70
2024/03/06 01:05:28;;;;;;;12.27;9.30;;;;;;;3.13;79.51;93163.69;519590;28;806;-70
2024/03/06 01:05:43;;;;;;;14.40;9.70;;;;;;;3.14;79.88;93162.44;519548;28;989;-70
2024/03/06 01:05:59;;;;;;;15.70;10.05;;;;;;;3.17;79.92;93159.44;519590;28;809;-70
2024/03/06 01:06:14;;;;;;;14.07;10.33;;;;;;;3.20;80.26;93168.59;519537;28;861;-70
2024/03/06 01:06:30;;;;;;;14.02;10.82;;;;;;;3.22;79.82;93161.41;519475;28;869;-70
2024/03/06 01:06:46;;;;;;;15.27;11.13;;;;;;;3.27;79.72;93162.59;519591;28;820;-70
2024/03/06 01:07:01;;;;;;;16.92;11.63;;;;;;;3.31;79.57;93165.78;519471;28;850;-70
2024/03/06 01:07:17;;;;;;;18.37;12.90;;;;;;;3.34;79.30;93164.75;519556;28;878;-70
2024/03/06 01:07:33;;;;;;;19.65;14.32;;;;;;;3.38;79.78;93171.41;519473;28;930;-70
2024/03/06 01:07:48;;;;;;;22.02;16.02;;;;;;;3.40;79.39;93170.94;519499;28;909;-70
2024/03/06 01:08:04;;;;;;;23.40;16.13;;;;;;;3.43;78.89;93172.63;519543;28;885;-70
2024/03/06 01:08:20;;;;;;;22.67;16.37;;;;;;;3.46;78.43;93166.16;519563;28;861;-70
2024/03/06 01:08:35;;;;;;;25.35;18.20;;;;;;;3.48;78.64;93167.13;519560;28;782;-70
2024/03/06 01:08:51;;;;;;;28.38;19.55;;;;;;;3.51;78.75;93160.63;519412;28;829;-70
2024/03/06 01:09:06;;;;;;;26.57;18.37;;;;;;;3.52;79.07;93167.59;519533;28;865;-70
2024/03/06 01:09:22;;;;;;;25.02;16.75;;;;;;;3.54;78.86;93156.91;519509;28;873;-70
2024/03/06 01:09:38;;;;;;;23.50;16.42;;;;;;;3.54;78.76;93165.09;519495;28;881;-70
2024/03/06 01:09:54;;;;;;;22.48;15.68;;;;;;;3.52;78.19;93162.13;519587;28;806;-70
2024/03/06 01:10:09;;;;;;;22.90;15.47;;;;;;;3.47;78.37;93159.44;519414;28;770;-70
2024/03/06 01:10:25;;;;;;;21.00;14.95;;;;;;;3.42;78.40;93165.69;519455;28;933;-70
2024/03/06 01:10:41;;;;;;;20.30;13.75;;;;;;;3.36;78.30;93165.72;519532;28;805;-70
2024/03/06 01:10:56;;;;;;;17.33;12.30;;;;;;;3.30;78.36;93161.56;519618;28;837;-70
2024/03/06 01:11:14;;;;;;;17.45;12.27;;;;;;;3.22;79.06;93163.38;519411;28;806;-71
2024/03/06 01:11:29;;;;;;;17.52;12.23;;;;;;;3.17;78.85;93164.16;519404;28;988;-70
2024/03/06 01:11:47;;;;;;;17.00;11.90;;;;;;;3.13;78.44;93163.69;519418;28;1922;-70
2024/03/06 01:12:03;;;;;;;16.98;11.52;;;;;;;3.09;79.18;93163.97;519455;28;940;-70
2024/03/06 01:12:19;;;;;;;16.37;11.67;;;;;;;3.06;79.13;93165.72;519550;28;841;-70
2024/03/06 01:12:35;;;;;;;18.92;12.65;;;;;;;2.99;79.14;93160.81;519469;28;1645;-70
2024/03/06 01:12:50;;;;;;;17.40;11.77;;;;;;;3.02;79.31;93165.25;519495;28;865;-70
2024/03/06 01:13:06;;;;;;;13.43;10.10;;;;;;;3.03;79.68;93171.47;519613;28;1035;-70
2024/03/06 01:13:21;;;;;;;12.23;9.40;;;;;;;3.04;79.66;93168.22;519484;28;738;-70
2024/03/06 01:13:37;;;;;;;12.27;9.20;;;;;;;3.06;79.63;93164.97;519502;28;877;-70
2024/03/06 01:13:53;;;;;;;12.63;9.30;;;;;;;3.07;79.67;93167.19;519575;28;948;-70
2024/03/06 01:14:09;;;;;;;14.00;10.07;;;;;;;3.11;79.49;93172.38;519340;28;926;-70
2024/03/06 01:14:24;;;;;;;15.53;10.50;;;;;;;3.13;79.44;93158.97;519640;28;753;-70
2024/03/06 01:14:39;;;;;;;14.60;10.20;;;;;;;3.16;79.63;93168.13;519470;28;845;-70
2024/03/06 01:14:56;;;;;;;14.77;10.07;;;;;;;3.19;79.40;93165.13;519643;28;843;-70
2024/03/06 01:15:12;;;;;;;15.90;10.40;;;;;;;2.97;79.36;93125.13;519446;28;912;-70
2024/03/06 01:15:27;;;;;;;15.50;10.60;;;;;;;3.24;79.54;93167.06;519567;28;901;-70
2024/03/06 01:15:42;;;;;;;13.82;10.38;;;;;;;3.28;79.74;93164.06;519600;28;947;-70
2024/03/06 01:15:58;;;;;;;13.57;10.10;;;;;;;3.29;79.24;93158.09;519486;28;846;-70
2024/03/06 01:16:13;;;;;;;13.77;9.73;;;;;;;3.32;78.92;93165.28;519481;28;999;-70
2024/03/06 01:16:29;;;;;;;13.20;9.57;;;;;;;3.33;79.23;93168.75;520376;28;1112;-70